Amoy Dream — VRHD5 — position and weather

sailwx.info

Track history (hours):
 
Tides and Currents Weather Stations Pressure Air Temp Water Temp Dewpoint Dewpoint Depression Visibility Wind Speed Wind Dir Waves Ship Positions

Amoy Dream

Last reported at 2017-Jan-08 05:09 UTC. Time now 2017-Jan-24 05:00 UTC.
Position N 27°36' W 013°56'.
Warning: this ship's position is 15 days out of date.

Length 190 m; draft 10.7 m.

Type: Cargo ship. MMSI: 477826600.

Date/timePositionNaut miles runAvg speedWind from/ knotsBaromVisibWave heightAir tempDewpointWater temp
2017-Jan-08 05:09N 27°36' W 013°56'712.4
2017-Jan-08 04:34N 27°42' W 013°51'1312.4
2017-Jan-08 03:33N 27°52' W 013°44'1212.3
2017-Jan-08 02:33N 28°03' W 013°36'1312.8
2017-Jan-08 01:33N 28°13' W 013°27'1312.7
2017-Jan-08 00:33N 28°23' W 013°19'1212.6
2017-Jan-07 23:33N 28°34' W 013°11'1212.5
2017-Jan-07 22:33N 28°44' W 013°03'1212.3
2017-Jan-07 21:33N 28°54' W 012°55'1212.1
2017-Jan-07 20:33N 29°04' W 012°48'1212.2
2017-Jan-07 19:33N 29°15' W 012°40'1212.1
2017-Jan-07 18:32N 29°24' W 012°32'1312.3
2017-Jan-07 17:30N 29°35' W 012°24'17011.9
2017-Jan-07 03:13N 31°55' W 010°33'33612.0
2017-Jan-05 23:14N 35°56' W 005°51'6 9.4
2017-Jan-05 22:33N 35°57' W 005°43'9 8.8
2017-Jan-05 21:34N 35°58' W 005°32'9 8.7
2017-Jan-05 20:34N 36°04' W 005°24'2 1.3
2017-Jan-05 19:14N 36°05' W 005°24'0 0.0
2017-Jan-05 18:26N 36°05' W 005°24'0 0.1
2017-Jan-05 16:32N 36°06' W 005°24'0 0.0
2017-Jan-05 15:32N 36°06' W 005°24'0 0.1
2017-Jan-05 14:32N 36°06' W 005°24'1 0.8
2017-Jan-05 13:33N 36°06' W 005°24'4 4.0
2017-Jan-05 12:33N 36°05' W 005°19'10711.8
2017-Jan-05 03:31N 36°20' W 003°08'1212.9
2017-Jan-05 02:33N 36°21' W 002°52'1212.4
2017-Jan-05 01:33N 36°23' W 002°37'1212.3
2017-Jan-05 00:33N 36°25' W 002°22'1211.6
2017-Jan-04 23:33N 36°28' W 002°08'1212.4
2017-Jan-04 22:33N 36°36' W 001°56'1312.6
2017-Jan-04 21:33N 36°45' W 001°44'1312.2
2017-Jan-04 20:29N 36°53' W 001°32'1412.3
2017-Jan-04 19:24N 37°02' W 001°20'1012.2
2017-Jan-04 18:33N 37°09' W 001°10'1212.0
2017-Jan-04 17:33N 37°17' W 000°59'1211.9
2017-Jan-04 16:33N 37°24' W 000°47'1212.1
2017-Jan-04 15:33N 37°32' W 000°36'1212.2
2017-Jan-04 14:33N 37°44' W 000°31'1212.3
2017-Jan-04 13:33N 37°56' W 000°28'1212.4
2017-Jan-04 12:33N 38°08' W 000°25'13 0.4
2017-Jan-03 07:22N 38°20' W 000°30'1 0.1
2017-Jan-02 05:18N 38°19' W 000°29'2 2.0
2017-Jan-02 04:32N 38°19' W 000°27'0 0.1
2017-Jan-02 03:31N 38°19' W 000°27'0 0.1
2017-Jan-02 02:19N 38°19' W 000°27'2 0.1
2017-Jan-01 05:30N 38°19' W 000°25'13212.8
2016-Dec-31 19:13N 38°25' E 002°23'1013.4
2016-Dec-31 18:28N 38°25' E 002°36'1313.4
2016-Dec-31 17:32N 38°26' E 002°52'1613.3
2016-Dec-31 16:20N 38°27' E 003°12'25213.4
2016-Dec-30 21:33N 38°39' E 008°35'1313.3
2016-Dec-30 20:33N 38°40' E 008°52'1413.4
2016-Dec-30 19:32N 38°43' E 009°09'1413.7
2016-Dec-30 18:33N 38°48' E 009°25'  
Track history (hours):
 
Tides and Currents Weather Stations Pressure Air Temp Water Temp Dewpoint Dewpoint Depression Visibility Wind Speed Wind Dir Waves Ship Positions

Amoy Dream

Last reported at 2017-Jan-08 05:09 UTC. Time now 2017-Jan-24 05:00 UTC.
Position N 27°36' W 013°56'.
Warning: this ship's position is 15 days out of date.

Length 190 m; draft 10.7 m.

Type: Cargo ship. MMSI: 477826600.

Date/timePositionNaut miles runAvg speedWind from/ knotsBaromVisibWave heightAir tempDewpointWater temp
2017-Jan-08 05:09N 27°36' W 013°56'712.4
2017-Jan-08 04:34N 27°42' W 013°51'1312.4
2017-Jan-08 03:33N 27°52' W 013°44'1212.3
2017-Jan-08 02:33N 28°03' W 013°36'1312.8
2017-Jan-08 01:33N 28°13' W 013°27'1312.7
2017-Jan-08 00:33N 28°23' W 013°19'1212.6
2017-Jan-07 23:33N 28°34' W 013°11'1212.5
2017-Jan-07 22:33N 28°44' W 013°03'1212.3
2017-Jan-07 21:33N 28°54' W 012°55'1212.1
2017-Jan-07 20:33N 29°04' W 012°48'1212.2
2017-Jan-07 19:33N 29°15' W 012°40'1212.1
2017-Jan-07 18:32N 29°24' W 012°32'1312.3
2017-Jan-07 17:30N 29°35' W 012°24'17011.9
2017-Jan-07 03:13N 31°55' W 010°33'33612.0
2017-Jan-05 23:14N 35°56' W 005°51'6 9.4
2017-Jan-05 22:33N 35°57' W 005°43'9 8.8
2017-Jan-05 21:34N 35°58' W 005°32'9 8.7
2017-Jan-05 20:34N 36°04' W 005°24'2 1.3
2017-Jan-05 19:14N 36°05' W 005°24'0 0.0
2017-Jan-05 18:26N 36°05' W 005°24'0 0.1
2017-Jan-05 16:32N 36°06' W 005°24'0 0.0
2017-Jan-05 15:32N 36°06' W 005°24'0 0.1
2017-Jan-05 14:32N 36°06' W 005°24'1 0.8
2017-Jan-05 13:33N 36°06' W 005°24'4 4.0
2017-Jan-05 12:33N 36°05' W 005°19'10711.8
2017-Jan-05 03:31N 36°20' W 003°08'1212.9
2017-Jan-05 02:33N 36°21' W 002°52'1212.4
2017-Jan-05 01:33N 36°23' W 002°37'1212.3
2017-Jan-05 00:33N 36°25' W 002°22'1211.6
2017-Jan-04 23:33N 36°28' W 002°08'1212.4
2017-Jan-04 22:33N 36°36' W 001°56'1312.6
2017-Jan-04 21:33N 36°45' W 001°44'1312.2
2017-Jan-04 20:29N 36°53' W 001°32'1412.3
2017-Jan-04 19:24N 37°02' W 001°20'1012.2
2017-Jan-04 18:33N 37°09' W 001°10'1212.0
2017-Jan-04 17:33N 37°17' W 000°59'1211.9
2017-Jan-04 16:33N 37°24' W 000°47'1212.1
2017-Jan-04 15:33N 37°32' W 000°36'1212.2
2017-Jan-04 14:33N 37°44' W 000°31'1212.3
2017-Jan-04 13:33N 37°56' W 000°28'1212.4
2017-Jan-04 12:33N 38°08' W 000°25'13 0.4
2017-Jan-03 07:22N 38°20' W 000°30'1 0.1
2017-Jan-02 05:18N 38°19' W 000°29'2 2.0
2017-Jan-02 04:32N 38°19' W 000°27'0 0.1
2017-Jan-02 03:31N 38°19' W 000°27'0 0.1
2017-Jan-02 02:19N 38°19' W 000°27'2 0.1
2017-Jan-01 05:30N 38°19' W 000°25'13212.8
2016-Dec-31 19:13N 38°25' E 002°23'1013.4
2016-Dec-31 18:28N 38°25' E 002°36'1313.4
2016-Dec-31 17:32N 38°26' E 002°52'1613.3
2016-Dec-31 16:20N 38°27' E 003°12'25213.4
2016-Dec-30 21:33N 38°39' E 008°35'1313.3
2016-Dec-30 20:33N 38°40' E 008°52'1413.4
2016-Dec-30 19:32N 38°43' E 009°09'1413.7
2016-Dec-30 18:33N 38°48' E 009°25'  

Dump ship's entire track history